createdAt,value
2023-04-15T00:00:26.278Z,92042.58
2023-04-15T00:05:33.725Z,92045.32
2023-04-15T00:10:41.020Z,92042.80
2023-04-15T00:15:48.614Z,92044.43
2023-04-15T00:20:55.939Z,92036.80
2023-04-15T00:26:03.177Z,92042.91
2023-04-15T00:31:10.486Z,92037.63
2023-04-15T00:36:18.240Z,92034.15
2023-04-15T00:41:26.079Z,92043.14
2023-04-15T00:46:38.091Z,92038.52
2023-04-15T00:51:45.301Z,92035.56
2023-04-15T00:56:52.533Z,92035.52
2023-04-15T01:02:00.117Z,92032.08
2023-04-15T01:07:07.417Z,92033.34
2023-04-15T01:12:17.722Z,92027.34
2023-04-15T01:17:26.231Z,92026.59
2023-04-15T01:22:35.034Z,92029.86
2023-04-15T01:27:45.925Z,92037.37
2023-04-15T01:32:52.941Z,92039.52
2023-04-15T01:38:09.115Z,92042.08
2023-04-15T01:43:15.971Z,92043.64
2023-04-15T01:48:23.521Z,92040.83
2023-04-15T01:53:30.532Z,92039.77
2023-04-15T01:58:37.832Z,92038.17
2023-04-15T02:03:45.931Z,92034.51
2023-04-15T02:08:52.941Z,92035.59
2023-04-15T02:14:00.048Z,92038.52
2023-04-15T02:19:07.044Z,92040.09
2023-04-15T02:24:14.096Z,92043.22
2023-04-15T02:29:21.062Z,92043.72
2023-04-15T02:34:28.394Z,92046.08
2023-04-15T02:39:35.956Z,92037.72
2023-04-15T02:44:43.867Z,92040.57
2023-04-15T02:49:51.065Z,92045.03
2023-04-15T02:54:59.462Z,92039.77
2023-04-15T03:00:47.022Z,92050.52
2023-04-15T03:05:53.885Z,92046.59
2023-04-15T03:11:03.017Z,92047.90
2023-04-15T03:16:10.610Z,92041.36
2023-04-15T03:21:17.624Z,92045.80
2023-04-15T03:26:32.098Z,92041.87
2023-04-15T03:31:39.255Z,92051.84
2023-04-15T03:36:46.399Z,92050.31
2023-04-15T03:41:53.835Z,92055.57
2023-04-15T03:47:00.764Z,92056.28
2023-04-15T03:52:08.136Z,92062.68
2023-04-15T03:57:15.642Z,92058.37
2023-04-15T04:02:23.812Z,92062.53
2023-04-15T04:07:30.836Z,92067.08
2023-04-15T04:12:37.660Z,92068.19
2023-04-15T04:17:44.385Z,92072.43
2023-04-15T04:22:51.553Z,92065.77
2023-04-15T04:27:58.779Z,92069.70
2023-04-15T04:33:05.523Z,92086.30
2023-04-15T04:38:12.458Z,92086.86
2023-04-15T04:43:19.231Z,92090.05
2023-04-15T04:48:26.372Z,92095.54
2023-04-15T04:53:33.144Z,92097.91
2023-04-15T04:58:40.017Z,92108.11
2023-04-15T05:03:46.966Z,92121.68
2023-04-15T05:08:55.749Z,92106.45
2023-04-15T05:14:02.736Z,92112.66
2023-04-15T05:19:09.497Z,92122.40
2023-04-15T05:24:17.178Z,92122.91
2023-04-15T05:29:23.885Z,92128.42
2023-04-15T05:34:31.097Z,92136.28
2023-04-15T05:39:37.792Z,92144.75
2023-04-15T05:44:45.156Z,92152.63
2023-04-15T05:49:52.097Z,92160.17
2023-04-15T05:54:59.083Z,92158.89
2023-04-15T06:00:07.153Z,92165.96
2023-04-15T06:05:14.034Z,92178.38
2023-04-15T06:10:21.767Z,92171.52
2023-04-15T06:15:28.772Z,92174.27
2023-04-15T06:20:35.496Z,92182.18
2023-04-15T06:25:42.203Z,92193.98
2023-04-15T06:30:49.506Z,92199.44
2023-04-15T06:35:56.400Z,92201.31
2023-04-15T06:41:04.508Z,92211.25
2023-04-15T06:46:12.140Z,92214.98
2023-04-15T06:51:19.205Z,92220.94
2023-04-15T06:56:25.947Z,92241.23
2023-04-15T07:01:33.081Z,92226.73
2023-04-15T07:06:40.128Z,92224.09
2023-04-15T07:11:47.408Z,92235.25
2023-04-15T07:16:55.763Z,92240.18
2023-04-15T07:22:03.309Z,92241.02
2023-04-15T07:27:10.414Z,92247.23
2023-04-15T07:32:17.384Z,92245.36
2023-04-15T07:37:24.416Z,92253.30
2023-04-15T07:42:31.505Z,92254.20
2023-04-15T07:47:38.448Z,92257.36
2023-04-15T07:52:46.018Z,92252.86
2023-04-15T07:57:52.984Z,92263.02
2023-04-15T08:03:00.177Z,92271.30
2023-04-15T08:08:07.700Z,92264.04
2023-04-15T08:13:14.594Z,92278.87
2023-04-15T08:18:21.587Z,92281.80
2023-04-15T08:23:28.660Z,92289.34
2023-04-15T08:28:36.052Z,92292.89
2023-04-15T08:33:42.737Z,92292.38
2023-04-15T08:38:51.649Z,92296.86
2023-04-15T08:44:06.191Z,92300.88
2023-04-15T08:49:14.519Z,92302.17
2023-04-15T08:54:21.973Z,92308.32
2023-04-15T08:59:28.820Z,92308.43
2023-04-15T09:04:35.997Z,92315.63
2023-04-15T09:09:42.697Z,92315.48
2023-04-15T09:14:49.931Z,92315.50
2023-04-15T09:20:19.266Z,92317.75
2023-04-15T09:25:29.190Z,92315.29
2023-04-15T09:30:36.447Z,92317.61
2023-04-15T09:35:43.582Z,92324.75
2023-04-15T09:40:50.441Z,92320.14
2023-04-15T09:45:57.220Z,92330.63
2023-04-15T09:51:04.960Z,92333.82
2023-04-15T09:56:11.799Z,92335.69
2023-04-15T10:01:19.121Z,92333.91
2023-04-15T10:06:28.540Z,92338.05
2023-04-15T10:11:37.841Z,92340.00
2023-04-15T10:16:48.909Z,92342.98
2023-04-15T10:21:57.705Z,92350.97
2023-04-15T10:27:07.759Z,92346.28
2023-04-15T10:32:15.539Z,92191.61
2023-04-15T10:37:37.849Z,92343.46
2023-04-15T10:42:44.831Z,92357.34
2023-04-15T10:47:58.475Z,92354.91
2023-04-15T10:53:08.815Z,92351.21
2023-04-15T10:58:16.006Z,92351.72
2023-04-15T11:03:42.620Z,92354.09
2023-04-15T11:09:03.493Z,92350.31
2023-04-15T11:14:18.915Z,92354.91
2023-04-15T11:19:26.724Z,92358.62
2023-04-15T11:24:34.633Z,92361.53
2023-04-15T11:29:41.646Z,92348.87
2023-04-15T11:34:53.375Z,92354.58
2023-04-15T11:40:00.673Z,92350.95
2023-04-15T11:45:16.748Z,92356.72
2023-04-15T11:50:25.618Z,92295.36
2023-04-15T11:55:33.209Z,92358.25
2023-04-15T12:00:41.492Z,92359.92
2023-04-15T12:06:22.863Z,92364.86
2023-04-15T12:11:39.107Z,92361.36
2023-04-15T12:16:51.752Z,92368.97
2023-04-15T12:22:08.472Z,92364.36
2023-04-15T12:27:17.230Z,92364.17
2023-04-15T12:32:24.588Z,92379.52
2023-04-15T12:37:32.170Z,92382.58
2023-04-15T12:42:39.333Z,92379.48
2023-04-15T12:47:46.610Z,92393.45
2023-04-15T12:52:53.427Z,92392.77
2023-04-15T12:58:00.559Z,92397.18
2023-04-15T13:03:07.888Z,92412.90
2023-04-15T13:08:15.507Z,92413.62
2023-04-15T13:13:22.797Z,92419.24
2023-04-15T13:18:31.474Z,92424.49
2023-04-15T13:23:38.457Z,92426.47
2023-04-15T13:28:47.300Z,92435.36
2023-04-15T13:33:54.555Z,92434.78
2023-04-15T13:39:02.113Z,92446.01
2023-04-15T13:44:08.967Z,92449.45
2023-04-15T13:49:15.753Z,92451.91
2023-04-15T13:54:23.056Z,92284.59
2023-04-15T13:59:29.926Z,92458.80
2023-04-15T14:04:36.797Z,92458.77
2023-04-15T14:09:45.377Z,92472.89
2023-04-15T14:14:52.172Z,92486.31
2023-04-15T14:19:59.125Z,92476.58
2023-04-15T14:25:06.968Z,92478.75
2023-04-15T14:30:14.569Z,92480.47
2023-04-15T14:35:21.882Z,92486.47
2023-04-15T14:40:29.157Z,92494.53
2023-04-15T14:45:36.613Z,92502.50
2023-04-15T14:50:44.083Z,92499.64
2023-04-15T14:55:50.784Z,92511.23
2023-04-15T15:00:58.082Z,92517.45
2023-04-15T15:06:05.077Z,92520.04
2023-04-15T15:11:11.964Z,92535.06
2023-04-15T15:16:19.204Z,92529.18
2023-04-15T15:21:29.062Z,92537.39
2023-04-15T15:26:36.441Z,92548.97
2023-04-15T15:31:43.394Z,92567.22
2023-04-15T15:36:50.842Z,92579.92
2023-04-15T15:41:57.969Z,92576.36
2023-04-15T15:47:05.013Z,92588.31
2023-04-15T15:52:13.436Z,92592.59
2023-04-15T15:57:20.381Z,92599.45
2023-04-15T16:02:52.327Z,92603.92
2023-04-15T16:07:36.809Z,92599.97
2023-04-15T16:12:43.887Z,92610.24
2023-04-15T16:17:51.102Z,92620.73
2023-04-15T16:23:00.198Z,92628.86
2023-04-15T16:28:18.509Z,92631.22
2023-04-15T16:33:15.341Z,92635.48
2023-04-15T16:38:22.525Z,92641.29
2023-04-15T16:43:29.953Z,92642.61
2023-04-15T16:48:36.770Z,92650.24
2023-04-15T16:53:43.490Z,92664.72
2023-04-15T16:58:51.200Z,92668.92
2023-04-15T17:03:58.498Z,92672.61
2023-04-15T17:09:05.653Z,92679.43
2023-04-15T17:14:13.911Z,92680.98
2023-04-15T17:19:21.116Z,92690.72
2023-04-15T17:24:27.921Z,92691.52
2023-04-15T17:29:35.062Z,92701.00
2023-04-15T17:34:49.445Z,92714.98
2023-04-15T17:39:50.938Z,92723.66
2023-04-15T17:44:57.734Z,92732.63
2023-04-15T17:50:05.424Z,92740.25
2023-04-15T17:55:13.097Z,92747.11
2023-04-15T18:00:20.182Z,92760.54
2023-04-15T18:05:27.421Z,92762.64
2023-04-15T18:10:35.798Z,92781.83
2023-04-15T18:15:42.748Z,92785.25
2023-04-15T18:20:49.722Z,92792.33
2023-04-15T18:25:57.692Z,92795.78
2023-04-15T18:31:04.510Z,92803.94
2023-04-15T18:36:12.268Z,92816.84
2023-04-15T18:41:19.026Z,92819.47
2023-04-15T18:46:26.149Z,92829.50
2023-04-15T18:51:33.590Z,92842.89
2023-04-15T18:56:41.004Z,92846.53
2023-04-15T19:01:48.686Z,92858.20
2023-04-15T19:06:55.822Z,92856.33
2023-04-15T19:12:03.534Z,92857.97
2023-04-15T19:17:10.436Z,92868.51
2023-04-15T19:22:19.343Z,92871.66
2023-04-15T19:27:26.551Z,92871.36
2023-04-15T19:32:33.671Z,92863.77
2023-04-15T19:37:40.894Z,92866.27
2023-04-15T19:42:48.034Z,92870.26
2023-04-15T19:47:56.738Z,92875.36
2023-04-15T19:53:03.749Z,92904.59
2023-04-15T19:58:10.642Z,92890.92
2023-04-15T20:03:21.709Z,92891.32
2023-04-15T20:08:28.737Z,92896.22
2023-04-15T20:13:35.560Z,92901.73
2023-04-15T20:18:42.436Z,92896.35
2023-04-15T20:23:49.404Z,92905.56
2023-04-15T20:28:56.925Z,92905.66
2023-04-15T20:34:03.690Z,92914.62
2023-04-15T20:39:10.451Z,92917.83
2023-04-15T20:44:17.517Z,92921.50
2023-04-15T20:49:24.577Z,92921.23
2023-04-15T20:54:32.099Z,92922.39
2023-04-15T20:59:38.910Z,92931.44
2023-04-15T21:04:47.383Z,92934.97
2023-04-15T21:09:55.571Z,92938.69
2023-04-15T21:15:02.658Z,92944.84
2023-04-15T21:20:11.174Z,92948.66
2023-04-15T21:25:17.948Z,92951.45
2023-04-15T21:30:25.851Z,92947.69
2023-04-15T21:35:32.663Z,92954.36
2023-04-15T21:40:40.970Z,92949.09
2023-04-15T21:46:22.417Z,92961.80
2023-04-15T21:51:01.885Z,92958.95
2023-04-15T21:56:09.268Z,92775.16
2023-04-15T22:01:17.184Z,92969.09
2023-04-15T22:06:30.301Z,92972.07
2023-04-15T22:11:37.055Z,92980.59
2023-04-15T22:16:44.795Z,92982.57
2023-04-15T22:21:52.763Z,92990.98
2023-04-15T22:26:59.789Z,92995.95
2023-04-15T22:32:07.440Z,93009.16
2023-04-15T22:37:15.821Z,93014.79
2023-04-15T22:42:22.714Z,93026.77
2023-04-15T22:47:29.526Z,93029.66
2023-04-15T22:52:36.416Z,93039.05
2023-04-15T22:57:43.359Z,93030.21
2023-04-15T23:02:50.916Z,93034.57
2023-04-15T23:07:58.249Z,93033.66
2023-04-15T23:13:05.263Z,92846.30
2023-04-15T23:18:12.647Z,93042.47
2023-04-15T23:23:19.651Z,93050.03
2023-04-15T23:28:26.585Z,93040.22
2023-04-15T23:33:33.603Z,93043.13
2023-04-15T23:38:40.635Z,93046.97
2023-04-15T23:43:47.487Z,93058.45
2023-04-15T23:48:54.691Z,93056.47
2023-04-15T23:54:02.265Z,93045.57
2023-04-15T23:59:09.395Z,93051.89
